<?xml version="1.0" encoding="UTF-8" standalone="no" ?>
<gpx xmlns="http://www.topografix.com/GPX/1/1" xmlns:xsi="http://www.w3.org/2001/XMLSchema-instance" xsi:schemaLocation="http://www.topografix.com/GPX/1/1 http://www.topografix.com/GPX/1/1/gpx.xsd" version="1.1" creator="VisuGPX - https://www.visugpx.com">
  <metadata>
    <name>2019-06-14 - Etang d'hasselfurth</name>
  </metadata>
  <trk>
    <name><![CDATA[2019-06-14 16:57:38]]></name>
    <trkseg>
      <trkpt lat="49.03871" lon="7.44072">
        <ele>289.68</ele>
        <time>2019-06-14T13:00:41Z</time>
      </trkpt>
      <trkpt lat="49.03873" lon="7.44072">
        <ele>281</ele>
        <time>2019-06-14T13:00:42Z</time>
      </trkpt>
      <trkpt lat="49.03871" lon="7.4407">
        <ele>281.17</ele>
        <time>2019-06-14T13:00:45Z</time>
      </trkpt>
      <trkpt lat="49.03865" lon="7.44058">
        <ele>281.07</ele>
        <time>2019-06-14T13:00:56Z</time>
      </trkpt>
      <trkpt lat="49.03864" lon="7.44054">
        <ele>280.81</ele>
        <time>2019-06-14T13:01:01Z</time>
      </trkpt>
      <trkpt lat="49.03859" lon="7.44051">
        <ele>281.01</ele>
        <time>2019-06-14T13:01:02Z</time>
      </trkpt>
      <trkpt lat="49.03861" lon="7.44046">
        <ele>280.49</ele>
        <time>2019-06-14T13:01:11Z</time>
      </trkpt>
      <trkpt lat="49.03855" lon="7.44034">
        <ele>280.42</ele>
        <time>2019-06-14T13:01:17Z</time>
      </trkpt>
      <trkpt lat="49.03842" lon="7.44022">
        <ele>280.06</ele>
        <time>2019-06-14T13:01:33Z</time>
      </trkpt>
      <trkpt lat="49.03837" lon="7.44024">
        <ele>280.14</ele>
        <time>2019-06-14T13:01:36Z</time>
      </trkpt>
      <trkpt lat="49.0382" lon="7.44037">
        <ele>280.38</ele>
        <time>2019-06-14T13:01:53Z</time>
      </trkpt>
      <trkpt lat="49.03807" lon="7.4404">
        <ele>280.38</ele>
        <time>2019-06-14T13:02:04Z</time>
      </trkpt>
      <trkpt lat="49.03786" lon="7.44035">
        <ele>280.19</ele>
        <time>2019-06-14T13:02:19Z</time>
      </trkpt>
      <trkpt lat="49.03769" lon="7.44027">
        <ele>281.24</ele>
        <time>2019-06-14T13:02:35Z</time>
      </trkpt>
      <trkpt lat="49.03767" lon="7.44025">
        <ele>281.32</ele>
        <time>2019-06-14T13:02:37Z</time>
      </trkpt>
      <trkpt lat="49.03749" lon="7.44024">
        <ele>281.59</ele>
        <time>2019-06-14T13:02:52Z</time>
      </trkpt>
      <trkpt lat="49.03729" lon="7.44022">
        <ele>281.41</ele>
        <time>2019-06-14T13:03:07Z</time>
      </trkpt>
      <trkpt lat="49.03725" lon="7.44025">
        <ele>281.25</ele>
        <time>2019-06-14T13:03:18Z</time>
      </trkpt>
      <trkpt lat="49.03727" lon="7.44044">
        <ele>281.67</ele>
        <time>2019-06-14T13:05:02Z</time>
      </trkpt>
      <trkpt lat="49.03725" lon="7.4404">
        <ele>281.85</ele>
        <time>2019-06-14T13:05:12Z</time>
      </trkpt>
      <trkpt lat="49.03701" lon="7.44028">
        <ele>281.96</ele>
        <time>2019-06-14T13:06:31Z</time>
      </trkpt>
      <trkpt lat="49.03698" lon="7.44027">
        <ele>282.01</ele>
        <time>2019-06-14T13:06:34Z</time>
      </trkpt>
      <trkpt lat="49.03666" lon="7.44033">
        <ele>282.35</ele>
        <time>2019-06-14T13:07:00Z</time>
      </trkpt>
      <trkpt lat="49.03641" lon="7.44027">
        <ele>282.1</ele>
        <time>2019-06-14T13:07:18Z</time>
      </trkpt>
      <trkpt lat="49.03631" lon="7.44026">
        <ele>282.86</ele>
        <time>2019-06-14T13:07:31Z</time>
      </trkpt>
      <trkpt lat="49.03622" lon="7.44017">
        <ele>282.97</ele>
        <time>2019-06-14T13:07:44Z</time>
      </trkpt>
      <trkpt lat="49.03603" lon="7.44011">
        <ele>283.16</ele>
        <time>2019-06-14T13:08:00Z</time>
      </trkpt>
      <trkpt lat="49.03595" lon="7.44013">
        <ele>283.56</ele>
        <time>2019-06-14T13:08:05Z</time>
      </trkpt>
      <trkpt lat="49.03573" lon="7.44021">
        <ele>284.45</ele>
        <time>2019-06-14T13:08:22Z</time>
      </trkpt>
      <trkpt lat="49.0356" lon="7.44024">
        <ele>284.21</ele>
        <time>2019-06-14T13:08:31Z</time>
      </trkpt>
      <trkpt lat="49.03542" lon="7.44017">
        <ele>283.64</ele>
        <time>2019-06-14T13:08:45Z</time>
      </trkpt>
      <trkpt lat="49.03525" lon="7.44012">
        <ele>283.6</ele>
        <time>2019-06-14T13:09:00Z</time>
      </trkpt>
      <trkpt lat="49.0351" lon="7.44012">
        <ele>283.3</ele>
        <time>2019-06-14T13:09:12Z</time>
      </trkpt>
      <trkpt lat="49.03509" lon="7.44012">
        <ele>283.32</ele>
        <time>2019-06-14T13:09:13Z</time>
      </trkpt>
      <trkpt lat="49.03506" lon="7.44011">
        <ele>283.34</ele>
        <time>2019-06-14T13:09:16Z</time>
      </trkpt>
      <trkpt lat="49.03499" lon="7.44006">
        <ele>283.35</ele>
        <time>2019-06-14T13:09:21Z</time>
      </trkpt>
      <trkpt lat="49.0349" lon="7.44002">
        <ele>283.53</ele>
        <time>2019-06-14T13:09:27Z</time>
      </trkpt>
      <trkpt lat="49.03472" lon="7.44001">
        <ele>283.65</ele>
        <time>2019-06-14T13:09:42Z</time>
      </trkpt>
      <trkpt lat="49.0347" lon="7.44002">
        <ele>283.63</ele>
        <time>2019-06-14T13:09:44Z</time>
      </trkpt>
      <trkpt lat="49.03465" lon="7.44">
        <ele>283.59</ele>
        <time>2019-06-14T13:09:49Z</time>
      </trkpt>
      <trkpt lat="49.03444" lon="7.44">
        <ele>283.78</ele>
        <time>2019-06-14T13:10:04Z</time>
      </trkpt>
      <trkpt lat="49.03428" lon="7.43996">
        <ele>284.05</ele>
        <time>2019-06-14T13:10:19Z</time>
      </trkpt>
      <trkpt lat="49.03409" lon="7.43999">
        <ele>284.16</ele>
        <time>2019-06-14T13:10:33Z</time>
      </trkpt>
      <trkpt lat="49.03392" lon="7.44005">
        <ele>284.39</ele>
        <time>2019-06-14T13:10:47Z</time>
      </trkpt>
      <trkpt lat="49.03376" lon="7.44011">
        <ele>284.41</ele>
        <time>2019-06-14T13:11:01Z</time>
      </trkpt>
      <trkpt lat="49.03358" lon="7.44015">
        <ele>284.33</ele>
        <time>2019-06-14T13:11:15Z</time>
      </trkpt>
      <trkpt lat="49.03343" lon="7.44021">
        <ele>284.16</ele>
        <time>2019-06-14T13:11:28Z</time>
      </trkpt>
      <trkpt lat="49.0333" lon="7.44028">
        <ele>284.18</ele>
        <time>2019-06-14T13:11:39Z</time>
      </trkpt>
      <trkpt lat="49.03319" lon="7.44038">
        <ele>284.66</ele>
        <time>2019-06-14T13:11:50Z</time>
      </trkpt>
      <trkpt lat="49.03316" lon="7.44042">
        <ele>284.66</ele>
        <time>2019-06-14T13:11:53Z</time>
      </trkpt>
      <trkpt lat="49.03312" lon="7.44057">
        <ele>284.74</ele>
        <time>2019-06-14T13:12:06Z</time>
      </trkpt>
      <trkpt lat="49.03301" lon="7.44088">
        <ele>284.91</ele>
        <time>2019-06-14T13:12:23Z</time>
      </trkpt>
      <trkpt lat="49.03299" lon="7.44096">
        <ele>285.04</ele>
        <time>2019-06-14T13:12:27Z</time>
      </trkpt>
      <trkpt lat="49.03295" lon="7.4411">
        <ele>285.44</ele>
        <time>2019-06-14T13:12:36Z</time>
      </trkpt>
      <trkpt lat="49.03292" lon="7.44113">
        <ele>285.44</ele>
        <time>2019-06-14T13:12:38Z</time>
      </trkpt>
      <trkpt lat="49.0327" lon="7.44138">
        <ele>285.53</ele>
        <time>2019-06-14T13:12:54Z</time>
      </trkpt>
      <trkpt lat="49.03266" lon="7.44142">
        <ele>285.53</ele>
        <time>2019-06-14T13:12:57Z</time>
      </trkpt>
      <trkpt lat="49.03251" lon="7.44158">
        <ele>285.26</ele>
        <time>2019-06-14T13:13:11Z</time>
      </trkpt>
      <trkpt lat="49.03247" lon="7.4417">
        <ele>285.31</ele>
        <time>2019-06-14T13:13:19Z</time>
      </trkpt>
      <trkpt lat="49.03242" lon="7.44197">
        <ele>285.23</ele>
        <time>2019-06-14T13:13:34Z</time>
      </trkpt>
      <trkpt lat="49.03242" lon="7.44223">
        <ele>285.69</ele>
        <time>2019-06-14T13:13:48Z</time>
      </trkpt>
      <trkpt lat="49.03241" lon="7.44253">
        <ele>285.63</ele>
        <time>2019-06-14T13:14:04Z</time>
      </trkpt>
      <trkpt lat="49.03242" lon="7.44264">
        <ele>285.55</ele>
        <time>2019-06-14T13:14:09Z</time>
      </trkpt>
      <trkpt lat="49.03241" lon="7.44274">
        <ele>285.57</ele>
        <time>2019-06-14T13:14:14Z</time>
      </trkpt>
      <trkpt lat="49.03237" lon="7.44298">
        <ele>285.46</ele>
        <time>2019-06-14T13:14:27Z</time>
      </trkpt>
      <trkpt lat="49.03229" lon="7.44322">
        <ele>285.6</ele>
        <time>2019-06-14T13:14:41Z</time>
      </trkpt>
      <trkpt lat="49.03225" lon="7.44346">
        <ele>285.6</ele>
        <time>2019-06-14T13:14:55Z</time>
      </trkpt>
      <trkpt lat="49.03222" lon="7.44357">
        <ele>285.82</ele>
        <time>2019-06-14T13:15:02Z</time>
      </trkpt>
      <trkpt lat="49.0322" lon="7.44373">
        <ele>286.27</ele>
        <time>2019-06-14T13:15:11Z</time>
      </trkpt>
      <trkpt lat="49.03218" lon="7.44382">
        <ele>286.77</ele>
        <time>2019-06-14T13:15:18Z</time>
      </trkpt>
      <trkpt lat="49.03217" lon="7.44383">
        <ele>286.81</ele>
        <time>2019-06-14T13:15:19Z</time>
      </trkpt>
      <trkpt lat="49.03214" lon="7.44387">
        <ele>287.02</ele>
        <time>2019-06-14T13:15:22Z</time>
      </trkpt>
      <trkpt lat="49.03204" lon="7.44403">
        <ele>288.11</ele>
        <time>2019-06-14T13:15:35Z</time>
      </trkpt>
      <trkpt lat="49.03198" lon="7.44419">
        <ele>288.07</ele>
        <time>2019-06-14T13:15:46Z</time>
      </trkpt>
      <trkpt lat="49.03189" lon="7.4444">
        <ele>288.78</ele>
        <time>2019-06-14T13:16:01Z</time>
      </trkpt>
      <trkpt lat="49.03188" lon="7.44442">
        <ele>288.79</ele>
        <time>2019-06-14T13:16:03Z</time>
      </trkpt>
      <trkpt lat="49.03176" lon="7.44446">
        <ele>289.23</ele>
        <time>2019-06-14T13:16:12Z</time>
      </trkpt>
      <trkpt lat="49.03159" lon="7.44446">
        <ele>289.31</ele>
        <time>2019-06-14T13:16:23Z</time>
      </trkpt>
      <trkpt lat="49.03156" lon="7.44447">
        <ele>289.3</ele>
        <time>2019-06-14T13:16:26Z</time>
      </trkpt>
      <trkpt lat="49.03149" lon="7.44445">
        <ele>289.24</ele>
        <time>2019-06-14T13:16:30Z</time>
      </trkpt>
      <trkpt lat="49.03145" lon="7.44445">
        <ele>289.14</ele>
        <time>2019-06-14T13:16:32Z</time>
      </trkpt>
      <trkpt lat="49.03122" lon="7.44441">
        <ele>289.49</ele>
        <time>2019-06-14T13:16:50Z</time>
      </trkpt>
      <trkpt lat="49.03121" lon="7.44441">
        <ele>289.49</ele>
        <time>2019-06-14T13:16:51Z</time>
      </trkpt>
      <trkpt lat="49.03115" lon="7.4444">
        <ele>289.65</ele>
        <time>2019-06-14T13:16:56Z</time>
      </trkpt>
      <trkpt lat="49.03097" lon="7.44438">
        <ele>289.84</ele>
        <time>2019-06-14T13:17:08Z</time>
      </trkpt>
      <trkpt lat="49.0308" lon="7.44427">
        <ele>290.49</ele>
        <time>2019-06-14T13:17:24Z</time>
      </trkpt>
      <trkpt lat="49.03064" lon="7.44418">
        <ele>290.22</ele>
        <time>2019-06-14T13:17:36Z</time>
      </trkpt>
      <trkpt lat="49.03048" lon="7.44411">
        <ele>290.02</ele>
        <time>2019-06-14T13:17:51Z</time>
      </trkpt>
      <trkpt lat="49.03028" lon="7.444">
        <ele>290.05</ele>
        <time>2019-06-14T13:18:05Z</time>
      </trkpt>
      <trkpt lat="49.0301" lon="7.44385">
        <ele>290.21</ele>
        <time>2019-06-14T13:18:20Z</time>
      </trkpt>
      <trkpt lat="49.02998" lon="7.44369">
        <ele>290.44</ele>
        <time>2019-06-14T13:18:34Z</time>
      </trkpt>
      <trkpt lat="49.02996" lon="7.44366">
        <ele>290.47</ele>
        <time>2019-06-14T13:18:37Z</time>
      </trkpt>
      <trkpt lat="49.02991" lon="7.44357">
        <ele>290.39</ele>
        <time>2019-06-14T13:18:41Z</time>
      </trkpt>
      <trkpt lat="49.02988" lon="7.44351">
        <ele>290.31</ele>
        <time>2019-06-14T13:18:45Z</time>
      </trkpt>
      <trkpt lat="49.02972" lon="7.44332">
        <ele>290.29</ele>
        <time>2019-06-14T13:19:01Z</time>
      </trkpt>
      <trkpt lat="49.02955" lon="7.44315">
        <ele>290.12</ele>
        <time>2019-06-14T13:19:15Z</time>
      </trkpt>
      <trkpt lat="49.02941" lon="7.4431">
        <ele>290.27</ele>
        <time>2019-06-14T13:19:27Z</time>
      </trkpt>
      <trkpt lat="49.02935" lon="7.44311">
        <ele>290.4</ele>
        <time>2019-06-14T13:19:32Z</time>
      </trkpt>
      <trkpt lat="49.02918" lon="7.44315">
        <ele>290.8</ele>
        <time>2019-06-14T13:19:46Z</time>
      </trkpt>
      <trkpt lat="49.02904" lon="7.4432">
        <ele>291.26</ele>
        <time>2019-06-14T13:19:59Z</time>
      </trkpt>
      <trkpt lat="49.02887" lon="7.4433">
        <ele>291.21</ele>
        <time>2019-06-14T13:20:13Z</time>
      </trkpt>
      <trkpt lat="49.02859" lon="7.44349">
        <ele>291.37</ele>
        <time>2019-06-14T13:20:38Z</time>
      </trkpt>
      <trkpt lat="49.02829" lon="7.44349">
        <ele>291.87</ele>
        <time>2019-06-14T13:21:02Z</time>
      </trkpt>
      <trkpt lat="49.02796" lon="7.44349">
        <ele>291.72</ele>
        <time>2019-06-14T13:21:24Z</time>
      </trkpt>
      <trkpt lat="49.0278" lon="7.44344">
        <ele>291.54</ele>
        <time>2019-06-14T13:21:36Z</time>
      </trkpt>
      <trkpt lat="49.0276" lon="7.44344">
        <ele>292.55</ele>
        <time>2019-06-14T13:21:53Z</time>
      </trkpt>
      <trkpt lat="49.0274" lon="7.44345">
        <ele>292.16</ele>
        <time>2019-06-14T13:22:08Z</time>
      </trkpt>
      <trkpt lat="49.02724" lon="7.44348">
        <ele>292.06</ele>
        <time>2019-06-14T13:22:22Z</time>
      </trkpt>
      <trkpt lat="49.02719" lon="7.4435">
        <ele>292.21</ele>
        <time>2019-06-14T13:22:27Z</time>
      </trkpt>
      <trkpt lat="49.02704" lon="7.44352">
        <ele>292.41</ele>
        <time>2019-06-14T13:22:41Z</time>
      </trkpt>
      <trkpt lat="49.02687" lon="7.44353">
        <ele>292.71</ele>
        <time>2019-06-14T13:22:56Z</time>
      </trkpt>
      <trkpt lat="49.02671" lon="7.44351">
        <ele>292.52</ele>
        <time>2019-06-14T13:23:07Z</time>
      </trkpt>
      <trkpt lat="49.02666" lon="7.4435">
        <ele>292.4</ele>
        <time>2019-06-14T13:23:10Z</time>
      </trkpt>
      <trkpt lat="49.02658" lon="7.44354">
        <ele>292.37</ele>
        <time>2019-06-14T13:23:17Z</time>
      </trkpt>
      <trkpt lat="49.02651" lon="7.44352">
        <ele>292.39</ele>
        <time>2019-06-14T13:23:24Z</time>
      </trkpt>
      <trkpt lat="49.02647" lon="7.4435">
        <ele>292.36</ele>
        <time>2019-06-14T13:23:27Z</time>
      </trkpt>
      <trkpt lat="49.02628" lon="7.44343">
        <ele>293.1</ele>
        <time>2019-06-14T13:23:42Z</time>
      </trkpt>
      <trkpt lat="49.02612" lon="7.44336">
        <ele>293.73</ele>
        <time>2019-06-14T13:23:57Z</time>
      </trkpt>
      <trkpt lat="49.02598" lon="7.44331">
        <ele>294.4</ele>
        <time>2019-06-14T13:24:09Z</time>
      </trkpt>
      <trkpt lat="49.02581" lon="7.44315">
        <ele>295.88</ele>
        <time>2019-06-14T13:24:24Z</time>
      </trkpt>
      <trkpt lat="49.02567" lon="7.44305">
        <ele>297.4</ele>
        <time>2019-06-14T13:24:38Z</time>
      </trkpt>
      <trkpt lat="49.02551" lon="7.44305">
        <ele>297.31</ele>
        <time>2019-06-14T13:24:52Z</time>
      </trkpt>
      <trkpt lat="49.02536" lon="7.44301">
        <ele>298.02</ele>
        <time>2019-06-14T13:25:05Z</time>
      </trkpt>
      <trkpt lat="49.02521" lon="7.44298">
        <ele>298.46</ele>
        <time>2019-06-14T13:25:17Z</time>
      </trkpt>
      <trkpt lat="49.0252" lon="7.44298">
        <ele>298.52</ele>
        <time>2019-06-14T13:25:18Z</time>
      </trkpt>
      <trkpt lat="49.02516" lon="7.44294">
        <ele>298.6</ele>
        <time>2019-06-14T13:25:22Z</time>
      </trkpt>
      <trkpt lat="49.02503" lon="7.44281">
        <ele>298.49</ele>
        <time>2019-06-14T13:25:33Z</time>
      </trkpt>
      <trkpt lat="49.02492" lon="7.44257">
        <ele>298.41</ele>
        <time>2019-06-14T13:25:50Z</time>
      </trkpt>
      <trkpt lat="49.0249" lon="7.44253">
        <ele>298.39</ele>
        <time>2019-06-14T13:25:57Z</time>
      </trkpt>
      <trkpt lat="49.02486" lon="7.44244">
        <ele>298.63</ele>
        <time>2019-06-14T13:26:04Z</time>
      </trkpt>
      <trkpt lat="49.02475" lon="7.44208">
        <ele>299.24</ele>
        <time>2019-06-14T13:26:27Z</time>
      </trkpt>
      <trkpt lat="49.02463" lon="7.44181">
        <ele>299.7</ele>
        <time>2019-06-14T13:26:43Z</time>
      </trkpt>
      <trkpt lat="49.0246" lon="7.44176">
        <ele>299.74</ele>
        <time>2019-06-14T13:26:47Z</time>
      </trkpt>
      <trkpt lat="49.02455" lon="7.44164">
        <ele>299.71</ele>
        <time>2019-06-14T13:26:56Z</time>
      </trkpt>
      <trkpt lat="49.02456" lon="7.44157">
        <ele>299.81</ele>
        <time>2019-06-14T13:27:00Z</time>
      </trkpt>
      <trkpt lat="49.02453" lon="7.44148">
        <ele>299.81</ele>
        <time>2019-06-14T13:27:07Z</time>
      </trkpt>
      <trkpt lat="49.02453" lon="7.44145">
        <ele>299.88</ele>
        <time>2019-06-14T13:27:09Z</time>
      </trkpt>
      <trkpt lat="49.02451" lon="7.44137">
        <ele>300.1</ele>
        <time>2019-06-14T13:27:13Z</time>
      </trkpt>
      <trkpt lat="49.02451" lon="7.44131">
        <ele>300.27</ele>
        <time>2019-06-14T13:27:18Z</time>
      </trkpt>
      <trkpt lat="49.02443" lon="7.44108">
        <ele>301.08</ele>
        <time>2019-06-14T13:27:30Z</time>
      </trkpt>
      <trkpt lat="49.02441" lon="7.44105">
        <ele>301</ele>
        <time>2019-06-14T13:27:32Z</time>
      </trkpt>
      <trkpt lat="49.02437" lon="7.44103">
        <ele>300.85</ele>
        <time>2019-06-14T13:27:36Z</time>
      </trkpt>
      <trkpt lat="49.02428" lon="7.44099">
        <ele>300.77</ele>
        <time>2019-06-14T13:27:43Z</time>
      </trkpt>
      <trkpt lat="49.02426" lon="7.44097">
        <ele>300.76</ele>
        <time>2019-06-14T13:27:45Z</time>
      </trkpt>
      <trkpt lat="49.02406" lon="7.4409">
        <ele>300.41</ele>
        <time>2019-06-14T13:28:01Z</time>
      </trkpt>
      <trkpt lat="49.02389" lon="7.44085">
        <ele>300.56</ele>
        <time>2019-06-14T13:28:15Z</time>
      </trkpt>
      <trkpt lat="49.02382" lon="7.44087">
        <ele>300.88</ele>
        <time>2019-06-14T13:28:20Z</time>
      </trkpt>
      <trkpt lat="49.02365" lon="7.44087">
        <ele>300.84</ele>
        <time>2019-06-14T13:28:33Z</time>
      </trkpt>
      <trkpt lat="49.02348" lon="7.44079">
        <ele>300.74</ele>
        <time>2019-06-14T13:28:47Z</time>
      </trkpt>
      <trkpt lat="49.02327" lon="7.44069">
        <ele>300.77</ele>
        <time>2019-06-14T13:29:02Z</time>
      </trkpt>
      <trkpt lat="49.0232" lon="7.44062">
        <ele>301.22</ele>
        <time>2019-06-14T13:29:14Z</time>
      </trkpt>
      <trkpt lat="49.02308" lon="7.44062">
        <ele>302.23</ele>
        <time>2019-06-14T13:30:10Z</time>
      </trkpt>
      <trkpt lat="49.02299" lon="7.4407">
        <ele>302.44</ele>
        <time>2019-06-14T13:30:17Z</time>
      </trkpt>
      <trkpt lat="49.02284" lon="7.44091">
        <ele>302.65</ele>
        <time>2019-06-14T13:30:32Z</time>
      </trkpt>
      <trkpt lat="49.02285" lon="7.44115">
        <ele>303.02</ele>
        <time>2019-06-14T13:30:46Z</time>
      </trkpt>
      <trkpt lat="49.02285" lon="7.44116">
        <ele>303.02</ele>
        <time>2019-06-14T13:30:47Z</time>
      </trkpt>
      <trkpt lat="49.02285" lon="7.44129">
        <ele>303.21</ele>
        <time>2019-06-14T13:30:59Z</time>
      </trkpt>
      <trkpt lat="49.02292" lon="7.44151">
        <ele>304</ele>
        <time>2019-06-14T13:31:14Z</time>
      </trkpt>
      <trkpt lat="49.02294" lon="7.44152">
        <ele>304.09</ele>
        <time>2019-06-14T13:31:15Z</time>
      </trkpt>
      <trkpt lat="49.02304" lon="7.44168">
        <ele>305.02</ele>
        <time>2019-06-14T13:31:28Z</time>
      </trkpt>
      <trkpt lat="49.02321" lon="7.44197">
        <ele>305.82</ele>
        <time>2019-06-14T13:31:44Z</time>
      </trkpt>
      <trkpt lat="49.02328" lon="7.44209">
        <ele>306.91</ele>
        <time>2019-06-14T13:31:53Z</time>
      </trkpt>
      <trkpt lat="49.02334" lon="7.44214">
        <ele>307.48</ele>
        <time>2019-06-14T13:31:58Z</time>
      </trkpt>
      <trkpt lat="49.02343" lon="7.44221">
        <ele>308.39</ele>
        <time>2019-06-14T13:32:09Z</time>
      </trkpt>
      <trkpt lat="49.02352" lon="7.44237">
        <ele>309.38</ele>
        <time>2019-06-14T13:32:23Z</time>
      </trkpt>
      <trkpt lat="49.02364" lon="7.44256">
        <ele>311.25</ele>
        <time>2019-06-14T13:32:38Z</time>
      </trkpt>
      <trkpt lat="49.02369" lon="7.44264">
        <ele>311.85</ele>
        <time>2019-06-14T13:32:44Z</time>
      </trkpt>
      <trkpt lat="49.02378" lon="7.44284">
        <ele>312.91</ele>
        <time>2019-06-14T13:32:57Z</time>
      </trkpt>
      <trkpt lat="49.02386" lon="7.44306">
        <ele>313.81</ele>
        <time>2019-06-14T13:33:10Z</time>
      </trkpt>
      <trkpt lat="49.02395" lon="7.44325">
        <ele>314.81</ele>
        <time>2019-06-14T13:33:23Z</time>
      </trkpt>
      <trkpt lat="49.02402" lon="7.44347">
        <ele>315.81</ele>
        <time>2019-06-14T13:33:35Z</time>
      </trkpt>
      <trkpt lat="49.02401" lon="7.44352">
        <ele>316</ele>
        <time>2019-06-14T13:33:38Z</time>
      </trkpt>
      <trkpt lat="49.02391" lon="7.44373">
        <ele>316.77</ele>
        <time>2019-06-14T13:33:51Z</time>
      </trkpt>
      <trkpt lat="49.02388" lon="7.44376">
        <ele>316.95</ele>
        <time>2019-06-14T13:33:53Z</time>
      </trkpt>
      <trkpt lat="49.02383" lon="7.44379">
        <ele>317.27</ele>
        <time>2019-06-14T13:33:58Z</time>
      </trkpt>
      <trkpt lat="49.0238" lon="7.44382">
        <ele>317.03</ele>
        <time>2019-06-14T13:34:01Z</time>
      </trkpt>
      <trkpt lat="49.02373" lon="7.44388">
        <ele>317.12</ele>
        <time>2019-06-14T13:34:07Z</time>
      </trkpt>
      <trkpt lat="49.02368" lon="7.4439">
        <ele>317.47</ele>
        <time>2019-06-14T13:34:11Z</time>
      </trkpt>
      <trkpt lat="49.02359" lon="7.44394">
        <ele>318.9</ele>
        <time>2019-06-14T13:34:19Z</time>
      </trkpt>
      <trkpt lat="49.02342" lon="7.44402">
        <ele>319.96</ele>
        <time>2019-06-14T13:34:35Z</time>
      </trkpt>
      <trkpt lat="49.02327" lon="7.44407">
        <ele>321.28</ele>
        <time>2019-06-14T13:34:49Z</time>
      </trkpt>
      <trkpt lat="49.02322" lon="7.44411">
        <ele>321.54</ele>
        <time>2019-06-14T13:34:53Z</time>
      </trkpt>
      <trkpt lat="49.02317" lon="7.44417">
        <ele>322</ele>
        <time>2019-06-14T13:34:58Z</time>
      </trkpt>
      <trkpt lat="49.0231" lon="7.44418">
        <ele>322.67</ele>
        <time>2019-06-14T13:35:05Z</time>
      </trkpt>
      <trkpt lat="49.02296" lon="7.44423">
        <ele>323.47</ele>
        <time>2019-06-14T13:35:17Z</time>
      </trkpt>
      <trkpt lat="49.02278" lon="7.44426">
        <ele>324.33</ele>
        <time>2019-06-14T13:35:31Z</time>
      </trkpt>
      <trkpt lat="49.02266" lon="7.44427">
        <ele>325.19</ele>
        <time>2019-06-14T13:35:42Z</time>
      </trkpt>
      <trkpt lat="49.02251" lon="7.44426">
        <ele>326.35</ele>
        <time>2019-06-14T13:35:58Z</time>
      </trkpt>
      <trkpt lat="49.0225" lon="7.44427">
        <ele>326.61</ele>
        <time>2019-06-14T13:36:00Z</time>
      </trkpt>
      <trkpt lat="49.02246" lon="7.44428">
        <ele>326.72</ele>
        <time>2019-06-14T13:36:03Z</time>
      </trkpt>
      <trkpt lat="49.02228" lon="7.44428">
        <ele>328.31</ele>
        <time>2019-06-14T13:36:17Z</time>
      </trkpt>
      <trkpt lat="49.02217" lon="7.4443">
        <ele>329.09</ele>
        <time>2019-06-14T13:36:25Z</time>
      </trkpt>
      <trkpt lat="49.02206" lon="7.44431">
        <ele>329.61</ele>
        <time>2019-06-14T13:36:36Z</time>
      </trkpt>
      <trkpt lat="49.02197" lon="7.4443">
        <ele>330.82</ele>
        <time>2019-06-14T13:36:46Z</time>
      </trkpt>
      <trkpt lat="49.02188" lon="7.44426">
        <ele>330.92</ele>
        <time>2019-06-14T13:36:52Z</time>
      </trkpt>
      <trkpt lat="49.02182" lon="7.44424">
        <ele>331.14</ele>
        <time>2019-06-14T13:36:57Z</time>
      </trkpt>
      <trkpt lat="49.02168" lon="7.44427">
        <ele>331.46</ele>
        <time>2019-06-14T13:37:09Z</time>
      </trkpt>
      <trkpt lat="49.0216" lon="7.44428">
        <ele>331.59</ele>
        <time>2019-06-14T13:37:16Z</time>
      </trkpt>
      <trkpt lat="49.02153" lon="7.44425">
        <ele>331.73</ele>
        <time>2019-06-14T13:37:21Z</time>
      </trkpt>
      <trkpt lat="49.02138" lon="7.44419">
        <ele>332.26</ele>
        <time>2019-06-14T13:37:35Z</time>
      </trkpt>
      <trkpt lat="49.02123" lon="7.44415">
        <ele>332.97</ele>
        <time>2019-06-14T13:37:49Z</time>
      </trkpt>
      <trkpt lat="49.02117" lon="7.44416">
        <ele>333.13</ele>
        <time>2019-06-14T13:37:54Z</time>
      </trkpt>
      <trkpt lat="49.02106" lon="7.4442">
        <ele>333.91</ele>
        <time>2019-06-14T13:38:04Z</time>
      </trkpt>
      <trkpt lat="49.02088" lon="7.44425">
        <ele>334.65</ele>
        <time>2019-06-14T13:38:18Z</time>
      </trkpt>
      <trkpt lat="49.0207" lon="7.44434">
        <ele>335.65</ele>
        <time>2019-06-14T13:38:34Z</time>
      </trkpt>
      <trkpt lat="49.02069" lon="7.44437">
        <ele>335.62</ele>
        <time>2019-06-14T13:38:40Z</time>
      </trkpt>
      <trkpt lat="49.02059" lon="7.44444">
        <ele>335.98</ele>
        <time>2019-06-14T13:38:53Z</time>
      </trkpt>
      <trkpt lat="49.02046" lon="7.44453">
        <ele>336.77</ele>
        <time>2019-06-14T13:39:09Z</time>
      </trkpt>
      <trkpt lat="49.02044" lon="7.44456">
        <ele>337.04</ele>
        <time>2019-06-14T13:39:13Z</time>
      </trkpt>
      <trkpt lat="49.02037" lon="7.44462">
        <ele>337.69</ele>
        <time>2019-06-14T13:39:21Z</time>
      </trkpt>
      <trkpt lat="49.0203" lon="7.44473">
        <ele>338.22</ele>
        <time>2019-06-14T13:39:30Z</time>
      </trkpt>
      <trkpt lat="49.0202" lon="7.44487">
        <ele>339.19</ele>
        <time>2019-06-14T13:39:44Z</time>
      </trkpt>
      <trkpt lat="49.02008" lon="7.44502">
        <ele>339.77</ele>
        <time>2019-06-14T13:39:58Z</time>
      </trkpt>
      <trkpt lat="49.02" lon="7.44514">
        <ele>340.49</ele>
        <time>2019-06-14T13:40:09Z</time>
      </trkpt>
      <trkpt lat="49.01994" lon="7.44521">
        <ele>341.18</ele>
        <time>2019-06-14T13:40:16Z</time>
      </trkpt>
      <trkpt lat="49.0199" lon="7.44527">
        <ele>341.79</ele>
        <time>2019-06-14T13:40:22Z</time>
      </trkpt>
      <trkpt lat="49.01982" lon="7.44539">
        <ele>342.15</ele>
        <time>2019-06-14T13:40:29Z</time>
      </trkpt>
      <trkpt lat="49.01975" lon="7.44548">
        <ele>343.15</ele>
        <time>2019-06-14T13:40:37Z</time>
      </trkpt>
      <trkpt lat="49.01964" lon="7.44564">
        <ele>344.07</ele>
        <time>2019-06-14T13:40:50Z</time>
      </trkpt>
      <trkpt lat="49.01962" lon="7.44565">
        <ele>344.19</ele>
        <time>2019-06-14T13:40:52Z</time>
      </trkpt>
      <trkpt lat="49.01961" lon="7.44565">
        <ele>344.29</ele>
        <time>2019-06-14T13:40:53Z</time>
      </trkpt>
      <trkpt lat="49.01956" lon="7.4457">
        <ele>344.6</ele>
        <time>2019-06-14T13:40:59Z</time>
      </trkpt>
      <trkpt lat="49.01946" lon="7.44589">
        <ele>345.65</ele>
        <time>2019-06-14T13:41:13Z</time>
      </trkpt>
      <trkpt lat="49.01942" lon="7.44598">
        <ele>346.04</ele>
        <time>2019-06-14T13:41:18Z</time>
      </trkpt>
      <trkpt lat="49.01928" lon="7.44614">
        <ele>347.07</ele>
        <time>2019-06-14T13:41:35Z</time>
      </trkpt>
      <trkpt lat="49.01918" lon="7.44625">
        <ele>347.72</ele>
        <time>2019-06-14T13:41:46Z</time>
      </trkpt>
      <trkpt lat="49.01911" lon="7.44636">
        <ele>348.46</ele>
        <time>2019-06-14T13:41:57Z</time>
      </trkpt>
      <trkpt lat="49.019" lon="7.44643">
        <ele>349.19</ele>
        <time>2019-06-14T13:42:10Z</time>
      </trkpt>
      <trkpt lat="49.01885" lon="7.44663">
        <ele>349.98</ele>
        <time>2019-06-14T13:42:25Z</time>
      </trkpt>
      <trkpt lat="49.01873" lon="7.44682">
        <ele>350.54</ele>
        <time>2019-06-14T13:42:39Z</time>
      </trkpt>
      <trkpt lat="49.01872" lon="7.44683">
        <ele>350.69</ele>
        <time>2019-06-14T13:42:40Z</time>
      </trkpt>
      <trkpt lat="49.01861" lon="7.44696">
        <ele>351.38</ele>
        <time>2019-06-14T13:42:49Z</time>
      </trkpt>
      <trkpt lat="49.01844" lon="7.44716">
        <ele>351.89</ele>
        <time>2019-06-14T13:43:04Z</time>
      </trkpt>
      <trkpt lat="49.01838" lon="7.44722">
        <ele>352.35</ele>
        <time>2019-06-14T13:43:12Z</time>
      </trkpt>
      <trkpt lat="49.01825" lon="7.44734">
        <ele>352.95</ele>
        <time>2019-06-14T13:43:26Z</time>
      </trkpt>
      <trkpt lat="49.01817" lon="7.44743">
        <ele>353.18</ele>
        <time>2019-06-14T13:43:32Z</time>
      </trkpt>
      <trkpt lat="49.01812" lon="7.44746">
        <ele>353.47</ele>
        <time>2019-06-14T13:43:36Z</time>
      </trkpt>
      <trkpt lat="49.01809" lon="7.44751">
        <ele>353.69</ele>
        <time>2019-06-14T13:43:39Z</time>
      </trkpt>
      <trkpt lat="49.018" lon="7.44759">
        <ele>354.26</ele>
        <time>2019-06-14T13:43:51Z</time>
      </trkpt>
      <trkpt lat="49.0179" lon="7.44767">
        <ele>354.85</ele>
        <time>2019-06-14T13:44:01Z</time>
      </trkpt>
      <trkpt lat="49.01778" lon="7.44781">
        <ele>354.93</ele>
        <time>2019-06-14T13:44:14Z</time>
      </trkpt>
      <trkpt lat="49.01761" lon="7.44794">
        <ele>355.27</ele>
        <time>2019-06-14T13:44:27Z</time>
      </trkpt>
      <trkpt lat="49.01745" lon="7.44811">
        <ele>355.42</ele>
        <time>2019-06-14T13:44:41Z</time>
      </trkpt>
      <trkpt lat="49.01733" lon="7.4482">
        <ele>356.08</ele>
        <time>2019-06-14T13:44:53Z</time>
      </trkpt>
      <trkpt lat="49.01728" lon="7.44826">
        <ele>356.23</ele>
        <time>2019-06-14T13:44:59Z</time>
      </trkpt>
      <trkpt lat="49.01722" lon="7.44832">
        <ele>356.47</ele>
        <time>2019-06-14T13:45:07Z</time>
      </trkpt>
      <trkpt lat="49.01712" lon="7.44843">
        <ele>356.74</ele>
        <time>2019-06-14T13:45:17Z</time>
      </trkpt>
      <trkpt lat="49.01706" lon="7.44847">
        <ele>357.15</ele>
        <time>2019-06-14T13:45:22Z</time>
      </trkpt>
      <trkpt lat="49.01703" lon="7.44854">
        <ele>357.68</ele>
        <time>2019-06-14T13:45:32Z</time>
      </trkpt>
      <trkpt lat="49.01701" lon="7.44866">
        <ele>357.8</ele>
        <time>2019-06-14T13:45:48Z</time>
      </trkpt>
      <trkpt lat="49.01701" lon="7.44867">
        <ele>357.79</ele>
        <time>2019-06-14T13:45:49Z</time>
      </trkpt>
      <trkpt lat="49.017" lon="7.44871">
        <ele>357.82</ele>
        <time>2019-06-14T13:45:55Z</time>
      </trkpt>
      <trkpt lat="49.01686" lon="7.44863">
        <ele>358.61</ele>
        <time>2019-06-14T13:47:03Z</time>
      </trkpt>
      <trkpt lat="49.01675" lon="7.44869">
        <ele>359.1</ele>
        <time>2019-06-14T13:47:26Z</time>
      </trkpt>
      <trkpt lat="49.01676" lon="7.44874">
        <ele>359.21</ele>
        <time>2019-06-14T13:47:39Z</time>
      </trkpt>
      <trkpt lat="49.01679" lon="7.44889">
        <ele>359.25</ele>
        <time>2019-06-14T13:48:54Z</time>
      </trkpt>
      <trkpt lat="49.0168" lon="7.44897">
        <ele>359.78</ele>
        <time>2019-06-14T13:49:04Z</time>
      </trkpt>
      <trkpt lat="49.01686" lon="7.44917">
        <ele>361.35</ele>
        <time>2019-06-14T13:50:05Z</time>
      </trkpt>
      <trkpt lat="49.01699" lon="7.44949">
        <ele>363.3</ele>
        <time>2019-06-14T13:50:32Z</time>
      </trkpt>
      <trkpt lat="49.01715" lon="7.44988">
        <ele>365.07</ele>
        <time>2019-06-14T13:51:03Z</time>
      </trkpt>
      <trkpt lat="49.0173" lon="7.45022">
        <ele>367.98</ele>
        <time>2019-06-14T13:51:29Z</time>
      </trkpt>
      <trkpt lat="49.01746" lon="7.4504">
        <ele>371.07</ele>
        <time>2019-06-14T13:51:54Z</time>
      </trkpt>
      <trkpt lat="49.01756" lon="7.45049">
        <ele>372.71</ele>
        <time>2019-06-14T13:52:08Z</time>
      </trkpt>
      <trkpt lat="49.01763" lon="7.45052">
        <ele>373.06</ele>
        <time>2019-06-14T13:52:14Z</time>
      </trkpt>
      <trkpt lat="49.01784" lon="7.45063">
        <ele>373.58</ele>
        <time>2019-06-14T13:52:33Z</time>
      </trkpt>
      <trkpt lat="49.01816" lon="7.45094">
        <ele>375.03</ele>
        <time>2019-06-14T13:53:03Z</time>
      </trkpt>
      <trkpt lat="49.01844" lon="7.45115">
        <ele>376.64</ele>
        <time>2019-06-14T13:53:28Z</time>
      </trkpt>
      <trkpt lat="49.01867" lon="7.45131">
        <ele>377.94</ele>
        <time>2019-06-14T13:53:54Z</time>
      </trkpt>
      <trkpt lat="49.01893" lon="7.45154">
        <ele>378.54</ele>
        <time>2019-06-14T13:54:20Z</time>
      </trkpt>
      <trkpt lat="49.01903" lon="7.45165">
        <ele>379.32</ele>
        <time>2019-06-14T13:54:30Z</time>
      </trkpt>
      <trkpt lat="49.01927" lon="7.45193">
        <ele>381.7</ele>
        <time>2019-06-14T13:54:56Z</time>
      </trkpt>
      <trkpt lat="49.01946" lon="7.45218">
        <ele>383.35</ele>
        <time>2019-06-14T13:55:21Z</time>
      </trkpt>
      <trkpt lat="49.01968" lon="7.45249">
        <ele>384.11</ele>
        <time>2019-06-14T13:55:44Z</time>
      </trkpt>
      <trkpt lat="49.01988" lon="7.45283">
        <ele>386.44</ele>
        <time>2019-06-14T13:56:11Z</time>
      </trkpt>
      <trkpt lat="49.02005" lon="7.45308">
        <ele>389.51</ele>
        <time>2019-06-14T13:56:37Z</time>
      </trkpt>
      <trkpt lat="49.02019" lon="7.4532">
        <ele>392.59</ele>
        <time>2019-06-14T13:56:57Z</time>
      </trkpt>
      <trkpt lat="49.02035" lon="7.45344">
        <ele>395.69</ele>
        <time>2019-06-14T13:57:18Z</time>
      </trkpt>
      <trkpt lat="49.02044" lon="7.4536">
        <ele>398.77</ele>
        <time>2019-06-14T13:57:33Z</time>
      </trkpt>
      <trkpt lat="49.02051" lon="7.45379">
        <ele>401.79</ele>
        <time>2019-06-14T13:57:51Z</time>
      </trkpt>
      <trkpt lat="49.02052" lon="7.4538">
        <ele>402.21</ele>
        <time>2019-06-14T13:57:53Z</time>
      </trkpt>
      <trkpt lat="49.02064" lon="7.45404">
        <ele>404.47</ele>
        <time>2019-06-14T13:58:14Z</time>
      </trkpt>
      <trkpt lat="49.02079" lon="7.45425">
        <ele>407.49</ele>
        <time>2019-06-14T13:58:35Z</time>
      </trkpt>
      <trkpt lat="49.02079" lon="7.45426">
        <ele>407.72</ele>
        <time>2019-06-14T13:58:36Z</time>
      </trkpt>
      <trkpt lat="49.02086" lon="7.45437">
        <ele>410.61</ele>
        <time>2019-06-14T13:58:51Z</time>
      </trkpt>
      <trkpt lat="49.02089" lon="7.4544">
        <ele>412.03</ele>
        <time>2019-06-14T13:58:57Z</time>
      </trkpt>
      <trkpt lat="49.02095" lon="7.45447">
        <ele>416.02</ele>
        <time>2019-06-14T13:59:19Z</time>
      </trkpt>
      <trkpt lat="49.02116" lon="7.45469">
        <ele>418.94</ele>
        <time>2019-06-14T13:59:45Z</time>
      </trkpt>
      <trkpt lat="49.02123" lon="7.45477">
        <ele>419.21</ele>
        <time>2019-06-14T13:59:57Z</time>
      </trkpt>
      <trkpt lat="49.02144" lon="7.45496">
        <ele>420.33</ele>
        <time>2019-06-14T14:05:50Z</time>
      </trkpt>
      <trkpt lat="49.02142" lon="7.45501">
        <ele>419.49</ele>
        <time>2019-06-14T14:05:57Z</time>
      </trkpt>
      <trkpt lat="49.0215" lon="7.45521">
        <ele>419.4</ele>
        <time>2019-06-14T14:06:21Z</time>
      </trkpt>
      <trkpt lat="49.02164" lon="7.45556">
        <ele>419.86</ele>
        <time>2019-06-14T14:06:48Z</time>
      </trkpt>
      <trkpt lat="49.0217" lon="7.45581">
        <ele>420.25</ele>
        <time>2019-06-14T14:07:03Z</time>
      </trkpt>
      <trkpt lat="49.0218" lon="7.45615">
        <ele>420.2</ele>
        <time>2019-06-14T14:07:29Z</time>
      </trkpt>
      <trkpt lat="49.0219" lon="7.45641">
        <ele>417.99</ele>
        <time>2019-06-14T14:07:56Z</time>
      </trkpt>
      <trkpt lat="49.02199" lon="7.45665">
        <ele>414.83</ele>
        <time>2019-06-14T14:08:12Z</time>
      </trkpt>
      <trkpt lat="49.02202" lon="7.45674">
        <ele>413.64</ele>
        <time>2019-06-14T14:08:26Z</time>
      </trkpt>
      <trkpt lat="49.02215" lon="7.45709">
        <ele>410.85</ele>
        <time>2019-06-14T14:09:13Z</time>
      </trkpt>
      <trkpt lat="49.02224" lon="7.45731">
        <ele>407.84</ele>
        <time>2019-06-14T14:09:35Z</time>
      </trkpt>
      <trkpt lat="49.02228" lon="7.45741">
        <ele>405.95</ele>
        <time>2019-06-14T14:09:47Z</time>
      </trkpt>
      <trkpt lat="49.02231" lon="7.45749">
        <ele>405.1</ele>
        <time>2019-06-14T14:09:54Z</time>
      </trkpt>
      <trkpt lat="49.02247" lon="7.45783">
        <ele>403.63</ele>
        <time>2019-06-14T14:10:20Z</time>
      </trkpt>
      <trkpt lat="49.02249" lon="7.45789">
        <ele>402.29</ele>
        <time>2019-06-14T14:10:27Z</time>
      </trkpt>
      <trkpt lat="49.02251" lon="7.45804">
        <ele>399.94</ele>
        <time>2019-06-14T14:10:38Z</time>
      </trkpt>
      <trkpt lat="49.02267" lon="7.45845">
        <ele>396.86</ele>
        <time>2019-06-14T14:11:05Z</time>
      </trkpt>
      <trkpt lat="49.02278" lon="7.45869">
        <ele>393.73</ele>
        <time>2019-06-14T14:11:25Z</time>
      </trkpt>
      <trkpt lat="49.02285" lon="7.45881">
        <ele>392.47</ele>
        <time>2019-06-14T14:11:33Z</time>
      </trkpt>
      <trkpt lat="49.02303" lon="7.45914">
        <ele>390.09</ele>
        <time>2019-06-14T14:12:03Z</time>
      </trkpt>
      <trkpt lat="49.02317" lon="7.45924">
        <ele>386.94</ele>
        <time>2019-06-14T14:12:23Z</time>
      </trkpt>
      <trkpt lat="49.02331" lon="7.45936">
        <ele>383.94</ele>
        <time>2019-06-14T14:12:40Z</time>
      </trkpt>
      <trkpt lat="49.02349" lon="7.45951">
        <ele>380.91</ele>
        <time>2019-06-14T14:13:03Z</time>
      </trkpt>
      <trkpt lat="49.02359" lon="7.45963">
        <ele>377.84</ele>
        <time>2019-06-14T14:13:18Z</time>
      </trkpt>
      <trkpt lat="49.02367" lon="7.45963">
        <ele>375.21</ele>
        <time>2019-06-14T14:13:31Z</time>
      </trkpt>
      <trkpt lat="49.02384" lon="7.45975">
        <ele>371.64</ele>
        <time>2019-06-14T14:13:57Z</time>
      </trkpt>
      <trkpt lat="49.02414" lon="7.45999">
        <ele>368.61</ele>
        <time>2019-06-14T14:14:26Z</time>
      </trkpt>
      <trkpt lat="49.02426" lon="7.4601">
        <ele>367.24</ele>
        <time>2019-06-14T14:14:45Z</time>
      </trkpt>
      <trkpt lat="49.02441" lon="7.4602">
        <ele>365.94</ele>
        <time>2019-06-14T14:15:11Z</time>
      </trkpt>
      <trkpt lat="49.02465" lon="7.46033">
        <ele>366.16</ele>
        <time>2019-06-14T14:15:38Z</time>
      </trkpt>
      <trkpt lat="49.02478" lon="7.4604">
        <ele>365.86</ele>
        <time>2019-06-14T14:15:54Z</time>
      </trkpt>
      <trkpt lat="49.02482" lon="7.46045">
        <ele>365.8</ele>
        <time>2019-06-14T14:15:58Z</time>
      </trkpt>
      <trkpt lat="49.02488" lon="7.46055">
        <ele>365.9</ele>
        <time>2019-06-14T14:16:06Z</time>
      </trkpt>
      <trkpt lat="49.02505" lon="7.46078">
        <ele>365.28</ele>
        <time>2019-06-14T14:16:23Z</time>
      </trkpt>
      <trkpt lat="49.02533" lon="7.46101">
        <ele>363.18</ele>
        <time>2019-06-14T14:16:53Z</time>
      </trkpt>
      <trkpt lat="49.02561" lon="7.46118">
        <ele>362.79</ele>
        <time>2019-06-14T14:17:19Z</time>
      </trkpt>
      <trkpt lat="49.02593" lon="7.46131">
        <ele>362.02</ele>
        <time>2019-06-14T14:17:47Z</time>
      </trkpt>
      <trkpt lat="49.02623" lon="7.46144">
        <ele>361.72</ele>
        <time>2019-06-14T14:18:14Z</time>
      </trkpt>
      <trkpt lat="49.02656" lon="7.46168">
        <ele>362.73</ele>
        <time>2019-06-14T14:18:41Z</time>
      </trkpt>
      <trkpt lat="49.02687" lon="7.46188">
        <ele>362.72</ele>
        <time>2019-06-14T14:19:07Z</time>
      </trkpt>
      <trkpt lat="49.02713" lon="7.46211">
        <ele>363.58</ele>
        <time>2019-06-14T14:19:32Z</time>
      </trkpt>
      <trkpt lat="49.02738" lon="7.46243">
        <ele>364.56</ele>
        <time>2019-06-14T14:19:58Z</time>
      </trkpt>
      <trkpt lat="49.02762" lon="7.46272">
        <ele>365.48</ele>
        <time>2019-06-14T14:20:22Z</time>
      </trkpt>
      <trkpt lat="49.02779" lon="7.46286">
        <ele>365.5</ele>
        <time>2019-06-14T14:20:37Z</time>
      </trkpt>
      <trkpt lat="49.02794" lon="7.46299">
        <ele>366.19</ele>
        <time>2019-06-14T14:20:53Z</time>
      </trkpt>
      <trkpt lat="49.02805" lon="7.46307">
        <ele>366.22</ele>
        <time>2019-06-14T14:21:03Z</time>
      </trkpt>
      <trkpt lat="49.02827" lon="7.46317">
        <ele>366.43</ele>
        <time>2019-06-14T14:21:20Z</time>
      </trkpt>
      <trkpt lat="49.02832" lon="7.4632">
        <ele>366.42</ele>
        <time>2019-06-14T14:21:23Z</time>
      </trkpt>
      <trkpt lat="49.02842" lon="7.46324">
        <ele>366.99</ele>
        <time>2019-06-14T14:21:32Z</time>
      </trkpt>
      <trkpt lat="49.02858" lon="7.46331">
        <ele>367.56</ele>
        <time>2019-06-14T14:21:45Z</time>
      </trkpt>
      <trkpt lat="49.02872" lon="7.46336">
        <ele>367.69</ele>
        <time>2019-06-14T14:21:57Z</time>
      </trkpt>
      <trkpt lat="49.02894" lon="7.46335">
        <ele>368.5</ele>
        <time>2019-06-14T14:22:15Z</time>
      </trkpt>
      <trkpt lat="49.02908" lon="7.4633">
        <ele>369.67</ele>
        <time>2019-06-14T14:22:28Z</time>
      </trkpt>
      <trkpt lat="49.02925" lon="7.46329">
        <ele>370.53</ele>
        <time>2019-06-14T14:22:42Z</time>
      </trkpt>
      <trkpt lat="49.02943" lon="7.4632">
        <ele>371.04</ele>
        <time>2019-06-14T14:22:58Z</time>
      </trkpt>
      <trkpt lat="49.02953" lon="7.46313">
        <ele>371.18</ele>
        <time>2019-06-14T14:23:08Z</time>
      </trkpt>
      <trkpt lat="49.02957" lon="7.46308">
        <ele>371.07</ele>
        <time>2019-06-14T14:23:12Z</time>
      </trkpt>
      <trkpt lat="49.02972" lon="7.46297">
        <ele>371.11</ele>
        <time>2019-06-14T14:23:26Z</time>
      </trkpt>
      <trkpt lat="49.02977" lon="7.4629">
        <ele>371.08</ele>
        <time>2019-06-14T14:23:32Z</time>
      </trkpt>
      <trkpt lat="49.02984" lon="7.46282">
        <ele>371.17</ele>
        <time>2019-06-14T14:23:40Z</time>
      </trkpt>
      <trkpt lat="49.02997" lon="7.4626">
        <ele>371.29</ele>
        <time>2019-06-14T14:23:55Z</time>
      </trkpt>
      <trkpt lat="49.02998" lon="7.46258">
        <ele>371.29</ele>
        <time>2019-06-14T14:23:56Z</time>
      </trkpt>
      <trkpt lat="49.0301" lon="7.46245">
        <ele>371.17</ele>
        <time>2019-06-14T14:24:09Z</time>
      </trkpt>
      <trkpt lat="49.03022" lon="7.46226">
        <ele>371.52</ele>
        <time>2019-06-14T14:24:25Z</time>
      </trkpt>
      <trkpt lat="49.03032" lon="7.46207">
        <ele>371.51</ele>
        <time>2019-06-14T14:24:37Z</time>
      </trkpt>
      <trkpt lat="49.03043" lon="7.46192">
        <ele>371.05</ele>
        <time>2019-06-14T14:24:50Z</time>
      </trkpt>
      <trkpt lat="49.03052" lon="7.46178">
        <ele>370.96</ele>
        <time>2019-06-14T14:25:03Z</time>
      </trkpt>
      <trkpt lat="49.03067" lon="7.46164">
        <ele>371.04</ele>
        <time>2019-06-14T14:25:19Z</time>
      </trkpt>
      <trkpt lat="49.03071" lon="7.46158">
        <ele>370.89</ele>
        <time>2019-06-14T14:25:23Z</time>
      </trkpt>
      <trkpt lat="49.03092" lon="7.46132">
        <ele>371.51</ele>
        <time>2019-06-14T14:25:39Z</time>
      </trkpt>
      <trkpt lat="49.03096" lon="7.46128">
        <ele>371.53</ele>
        <time>2019-06-14T14:25:44Z</time>
      </trkpt>
      <trkpt lat="49.03109" lon="7.46114">
        <ele>371.13</ele>
        <time>2019-06-14T14:26:00Z</time>
      </trkpt>
      <trkpt lat="49.03119" lon="7.46103">
        <ele>370.56</ele>
        <time>2019-06-14T14:26:13Z</time>
      </trkpt>
      <trkpt lat="49.03132" lon="7.46089">
        <ele>369.94</ele>
        <time>2019-06-14T14:26:27Z</time>
      </trkpt>
      <trkpt lat="49.03138" lon="7.46085">
        <ele>369.7</ele>
        <time>2019-06-14T14:26:32Z</time>
      </trkpt>
      <trkpt lat="49.03149" lon="7.46077">
        <ele>369.21</ele>
        <time>2019-06-14T14:26:42Z</time>
      </trkpt>
      <trkpt lat="49.03164" lon="7.46065">
        <ele>368.63</ele>
        <time>2019-06-14T14:26:55Z</time>
      </trkpt>
      <trkpt lat="49.03183" lon="7.46056">
        <ele>367.97</ele>
        <time>2019-06-14T14:27:10Z</time>
      </trkpt>
      <trkpt lat="49.03197" lon="7.46045">
        <ele>367.25</ele>
        <time>2019-06-14T14:27:23Z</time>
      </trkpt>
      <trkpt lat="49.03201" lon="7.46039">
        <ele>366.8</ele>
        <time>2019-06-14T14:27:27Z</time>
      </trkpt>
      <trkpt lat="49.03205" lon="7.46036">
        <ele>366.31</ele>
        <time>2019-06-14T14:27:31Z</time>
      </trkpt>
      <trkpt lat="49.03211" lon="7.46033">
        <ele>365.86</ele>
        <time>2019-06-14T14:27:36Z</time>
      </trkpt>
      <trkpt lat="49.0323" lon="7.46025">
        <ele>364.52</ele>
        <time>2019-06-14T14:27:53Z</time>
      </trkpt>
      <trkpt lat="49.03231" lon="7.46025">
        <ele>364.44</ele>
        <time>2019-06-14T14:27:54Z</time>
      </trkpt>
      <trkpt lat="49.03248" lon="7.46016">
        <ele>363</ele>
        <time>2019-06-14T14:28:11Z</time>
      </trkpt>
      <trkpt lat="49.03263" lon="7.46017">
        <ele>361.42</ele>
        <time>2019-06-14T14:28:24Z</time>
      </trkpt>
      <trkpt lat="49.03277" lon="7.46016">
        <ele>360.3</ele>
        <time>2019-06-14T14:28:36Z</time>
      </trkpt>
      <trkpt lat="49.0329" lon="7.46007">
        <ele>358.52</ele>
        <time>2019-06-14T14:28:49Z</time>
      </trkpt>
      <trkpt lat="49.03304" lon="7.46001">
        <ele>356.98</ele>
        <time>2019-06-14T14:29:02Z</time>
      </trkpt>
      <trkpt lat="49.03319" lon="7.45997">
        <ele>355.35</ele>
        <time>2019-06-14T14:29:16Z</time>
      </trkpt>
      <trkpt lat="49.03324" lon="7.45995">
        <ele>354.83</ele>
        <time>2019-06-14T14:29:20Z</time>
      </trkpt>
      <trkpt lat="49.03342" lon="7.45983">
        <ele>353.02</ele>
        <time>2019-06-14T14:29:37Z</time>
      </trkpt>
      <trkpt lat="49.03347" lon="7.45976">
        <ele>352.41</ele>
        <time>2019-06-14T14:29:43Z</time>
      </trkpt>
      <trkpt lat="49.03366" lon="7.45962">
        <ele>350.92</ele>
        <time>2019-06-14T14:30:01Z</time>
      </trkpt>
      <trkpt lat="49.03379" lon="7.45955">
        <ele>349.78</ele>
        <time>2019-06-14T14:30:14Z</time>
      </trkpt>
      <trkpt lat="49.03385" lon="7.45951">
        <ele>349.45</ele>
        <time>2019-06-14T14:30:19Z</time>
      </trkpt>
      <trkpt lat="49.0339" lon="7.45949">
        <ele>348.88</ele>
        <time>2019-06-14T14:30:24Z</time>
      </trkpt>
      <trkpt lat="49.03409" lon="7.45944">
        <ele>348.04</ele>
        <time>2019-06-14T14:30:41Z</time>
      </trkpt>
      <trkpt lat="49.03425" lon="7.45946">
        <ele>346.89</ele>
        <time>2019-06-14T14:30:56Z</time>
      </trkpt>
      <trkpt lat="49.03442" lon="7.45948">
        <ele>345.9</ele>
        <time>2019-06-14T14:31:12Z</time>
      </trkpt>
      <trkpt lat="49.03463" lon="7.45956">
        <ele>344.59</ele>
        <time>2019-06-14T14:31:30Z</time>
      </trkpt>
      <trkpt lat="49.03477" lon="7.45963">
        <ele>343.01</ele>
        <time>2019-06-14T14:31:44Z</time>
      </trkpt>
      <trkpt lat="49.03492" lon="7.45979">
        <ele>341.09</ele>
        <time>2019-06-14T14:31:59Z</time>
      </trkpt>
      <trkpt lat="49.03493" lon="7.45982">
        <ele>340.79</ele>
        <time>2019-06-14T14:32:01Z</time>
      </trkpt>
      <trkpt lat="49.03494" lon="7.45985">
        <ele>340.48</ele>
        <time>2019-06-14T14:32:03Z</time>
      </trkpt>
      <trkpt lat="49.03508" lon="7.46001">
        <ele>338.65</ele>
        <time>2019-06-14T14:32:19Z</time>
      </trkpt>
      <trkpt lat="49.03523" lon="7.46021">
        <ele>337.49</ele>
        <time>2019-06-14T14:32:35Z</time>
      </trkpt>
      <trkpt lat="49.03537" lon="7.46028">
        <ele>337</ele>
        <time>2019-06-14T14:32:48Z</time>
      </trkpt>
      <trkpt lat="49.03552" lon="7.46039">
        <ele>336.06</ele>
        <time>2019-06-14T14:33:03Z</time>
      </trkpt>
      <trkpt lat="49.03563" lon="7.46046">
        <ele>335.42</ele>
        <time>2019-06-14T14:33:13Z</time>
      </trkpt>
      <trkpt lat="49.03574" lon="7.46053">
        <ele>334.9</ele>
        <time>2019-06-14T14:33:23Z</time>
      </trkpt>
      <trkpt lat="49.03591" lon="7.46054">
        <ele>334.89</ele>
        <time>2019-06-14T14:33:38Z</time>
      </trkpt>
      <trkpt lat="49.03609" lon="7.4605">
        <ele>334.96</ele>
        <time>2019-06-14T14:33:53Z</time>
      </trkpt>
      <trkpt lat="49.03612" lon="7.4605">
        <ele>334.96</ele>
        <time>2019-06-14T14:33:55Z</time>
      </trkpt>
      <trkpt lat="49.03619" lon="7.46049">
        <ele>335.23</ele>
        <time>2019-06-14T14:34:02Z</time>
      </trkpt>
      <trkpt lat="49.03627" lon="7.46048">
        <ele>335.41</ele>
        <time>2019-06-14T14:34:10Z</time>
      </trkpt>
      <trkpt lat="49.03631" lon="7.46049">
        <ele>335.66</ele>
        <time>2019-06-14T14:34:17Z</time>
      </trkpt>
      <trkpt lat="49.03655" lon="7.46026">
        <ele>337.58</ele>
        <time>2019-06-14T14:35:25Z</time>
      </trkpt>
      <trkpt lat="49.03656" lon="7.46019">
        <ele>338.01</ele>
        <time>2019-06-14T14:35:30Z</time>
      </trkpt>
      <trkpt lat="49.03659" lon="7.45988">
        <ele>341.1</ele>
        <time>2019-06-14T14:35:54Z</time>
      </trkpt>
      <trkpt lat="49.03656" lon="7.45959">
        <ele>344.2</ele>
        <time>2019-06-14T14:36:16Z</time>
      </trkpt>
      <trkpt lat="49.03657" lon="7.45912">
        <ele>347.23</ele>
        <time>2019-06-14T14:36:42Z</time>
      </trkpt>
      <trkpt lat="49.0367" lon="7.45861">
        <ele>346.93</ele>
        <time>2019-06-14T14:37:11Z</time>
      </trkpt>
      <trkpt lat="49.03674" lon="7.45816">
        <ele>345.59</ele>
        <time>2019-06-14T14:37:38Z</time>
      </trkpt>
      <trkpt lat="49.03671" lon="7.45773">
        <ele>344.71</ele>
        <time>2019-06-14T14:38:05Z</time>
      </trkpt>
      <trkpt lat="49.03668" lon="7.45736">
        <ele>345.12</ele>
        <time>2019-06-14T14:38:28Z</time>
      </trkpt>
      <trkpt lat="49.03668" lon="7.45695">
        <ele>345.47</ele>
        <time>2019-06-14T14:38:50Z</time>
      </trkpt>
      <trkpt lat="49.03671" lon="7.45657">
        <ele>345.8</ele>
        <time>2019-06-14T14:39:12Z</time>
      </trkpt>
      <trkpt lat="49.03678" lon="7.45612">
        <ele>346.5</ele>
        <time>2019-06-14T14:39:36Z</time>
      </trkpt>
      <trkpt lat="49.03685" lon="7.45573">
        <ele>346.96</ele>
        <time>2019-06-14T14:39:59Z</time>
      </trkpt>
      <trkpt lat="49.03702" lon="7.4554">
        <ele>346.12</ele>
        <time>2019-06-14T14:40:21Z</time>
      </trkpt>
      <trkpt lat="49.03724" lon="7.4549">
        <ele>345.82</ele>
        <time>2019-06-14T14:40:52Z</time>
      </trkpt>
      <trkpt lat="49.03733" lon="7.45483">
        <ele>346.08</ele>
        <time>2019-06-14T14:41:08Z</time>
      </trkpt>
      <trkpt lat="49.03743" lon="7.45486">
        <ele>345.98</ele>
        <time>2019-06-14T14:41:42Z</time>
      </trkpt>
      <trkpt lat="49.03747" lon="7.45488">
        <ele>346.05</ele>
        <time>2019-06-14T14:41:50Z</time>
      </trkpt>
      <trkpt lat="49.03747" lon="7.4546">
        <ele>345.88</ele>
        <time>2019-06-14T14:42:07Z</time>
      </trkpt>
      <trkpt lat="49.03745" lon="7.4542">
        <ele>344.36</ele>
        <time>2019-06-14T14:42:34Z</time>
      </trkpt>
      <trkpt lat="49.03752" lon="7.45391">
        <ele>343.21</ele>
        <time>2019-06-14T14:42:59Z</time>
      </trkpt>
      <trkpt lat="49.03761" lon="7.45356">
        <ele>341.62</ele>
        <time>2019-06-14T14:43:21Z</time>
      </trkpt>
      <trkpt lat="49.03773" lon="7.45313">
        <ele>340.12</ele>
        <time>2019-06-14T14:43:49Z</time>
      </trkpt>
      <trkpt lat="49.03777" lon="7.45274">
        <ele>339.09</ele>
        <time>2019-06-14T14:44:09Z</time>
      </trkpt>
      <trkpt lat="49.03777" lon="7.45273">
        <ele>339.04</ele>
        <time>2019-06-14T14:44:10Z</time>
      </trkpt>
      <trkpt lat="49.03781" lon="7.45256">
        <ele>338.4</ele>
        <time>2019-06-14T14:44:19Z</time>
      </trkpt>
      <trkpt lat="49.03789" lon="7.45222">
        <ele>337.04</ele>
        <time>2019-06-14T14:44:38Z</time>
      </trkpt>
      <trkpt lat="49.03799" lon="7.45178">
        <ele>336.11</ele>
        <time>2019-06-14T14:44:58Z</time>
      </trkpt>
      <trkpt lat="49.03803" lon="7.4515">
        <ele>335.58</ele>
        <time>2019-06-14T14:45:14Z</time>
      </trkpt>
      <trkpt lat="49.03804" lon="7.45139">
        <ele>335.35</ele>
        <time>2019-06-14T14:45:21Z</time>
      </trkpt>
      <trkpt lat="49.03807" lon="7.45132">
        <ele>335.09</ele>
        <time>2019-06-14T14:45:26Z</time>
      </trkpt>
      <trkpt lat="49.03814" lon="7.45115">
        <ele>334.17</ele>
        <time>2019-06-14T14:45:38Z</time>
      </trkpt>
      <trkpt lat="49.03823" lon="7.451">
        <ele>332.96</ele>
        <time>2019-06-14T14:45:49Z</time>
      </trkpt>
      <trkpt lat="49.03839" lon="7.4508">
        <ele>331.37</ele>
        <time>2019-06-14T14:46:06Z</time>
      </trkpt>
      <trkpt lat="49.03848" lon="7.45067">
        <ele>330.17</ele>
        <time>2019-06-14T14:46:17Z</time>
      </trkpt>
      <trkpt lat="49.03852" lon="7.45057">
        <ele>329.55</ele>
        <time>2019-06-14T14:46:24Z</time>
      </trkpt>
      <trkpt lat="49.03854" lon="7.45054">
        <ele>329.49</ele>
        <time>2019-06-14T14:46:26Z</time>
      </trkpt>
      <trkpt lat="49.03858" lon="7.45042">
        <ele>329.16</ele>
        <time>2019-06-14T14:46:33Z</time>
      </trkpt>
      <trkpt lat="49.03864" lon="7.45018">
        <ele>328.64</ele>
        <time>2019-06-14T14:46:47Z</time>
      </trkpt>
      <trkpt lat="49.03867" lon="7.44991">
        <ele>328.2</ele>
        <time>2019-06-14T14:47:03Z</time>
      </trkpt>
      <trkpt lat="49.03869" lon="7.44984">
        <ele>328.02</ele>
        <time>2019-06-14T14:47:08Z</time>
      </trkpt>
      <trkpt lat="49.03874" lon="7.44954">
        <ele>327.44</ele>
        <time>2019-06-14T14:47:24Z</time>
      </trkpt>
      <trkpt lat="49.03877" lon="7.44942">
        <ele>327.45</ele>
        <time>2019-06-14T14:47:31Z</time>
      </trkpt>
      <trkpt lat="49.03881" lon="7.44934">
        <ele>327.54</ele>
        <time>2019-06-14T14:47:36Z</time>
      </trkpt>
      <trkpt lat="49.03892" lon="7.44907">
        <ele>326.83</ele>
        <time>2019-06-14T14:47:49Z</time>
      </trkpt>
      <trkpt lat="49.03892" lon="7.4489">
        <ele>326.23</ele>
        <time>2019-06-14T14:47:58Z</time>
      </trkpt>
      <trkpt lat="49.03895" lon="7.4488">
        <ele>325.5</ele>
        <time>2019-06-14T14:48:05Z</time>
      </trkpt>
      <trkpt lat="49.03902" lon="7.4486">
        <ele>324.28</ele>
        <time>2019-06-14T14:48:17Z</time>
      </trkpt>
      <trkpt lat="49.03912" lon="7.44842">
        <ele>323</ele>
        <time>2019-06-14T14:48:30Z</time>
      </trkpt>
      <trkpt lat="49.03918" lon="7.44828">
        <ele>322.07</ele>
        <time>2019-06-14T14:48:40Z</time>
      </trkpt>
      <trkpt lat="49.0392" lon="7.4482">
        <ele>321.75</ele>
        <time>2019-06-14T14:48:44Z</time>
      </trkpt>
      <trkpt lat="49.03931" lon="7.448">
        <ele>320.63</ele>
        <time>2019-06-14T14:48:59Z</time>
      </trkpt>
      <trkpt lat="49.03942" lon="7.44774">
        <ele>319.07</ele>
        <time>2019-06-14T14:49:17Z</time>
      </trkpt>
      <trkpt lat="49.03947" lon="7.44756">
        <ele>318.23</ele>
        <time>2019-06-14T14:49:28Z</time>
      </trkpt>
      <trkpt lat="49.03957" lon="7.44732">
        <ele>317.29</ele>
        <time>2019-06-14T14:49:44Z</time>
      </trkpt>
      <trkpt lat="49.03963" lon="7.44714">
        <ele>315.81</ele>
        <time>2019-06-14T14:49:57Z</time>
      </trkpt>
      <trkpt lat="49.03973" lon="7.44685">
        <ele>314.99</ele>
        <time>2019-06-14T14:50:14Z</time>
      </trkpt>
      <trkpt lat="49.03983" lon="7.44664">
        <ele>314.44</ele>
        <time>2019-06-14T14:50:30Z</time>
      </trkpt>
      <trkpt lat="49.03994" lon="7.44642">
        <ele>313.96</ele>
        <time>2019-06-14T14:50:46Z</time>
      </trkpt>
      <trkpt lat="49.04004" lon="7.4462">
        <ele>313.22</ele>
        <time>2019-06-14T14:51:00Z</time>
      </trkpt>
      <trkpt lat="49.04012" lon="7.44598">
        <ele>312.77</ele>
        <time>2019-06-14T14:51:14Z</time>
      </trkpt>
      <trkpt lat="49.04019" lon="7.44572">
        <ele>312.9</ele>
        <time>2019-06-14T14:51:29Z</time>
      </trkpt>
      <trkpt lat="49.04021" lon="7.44562">
        <ele>312.13</ele>
        <time>2019-06-14T14:51:36Z</time>
      </trkpt>
      <trkpt lat="49.0403" lon="7.4455">
        <ele>310.72</ele>
        <time>2019-06-14T14:51:47Z</time>
      </trkpt>
      <trkpt lat="49.04031" lon="7.44547">
        <ele>310.46</ele>
        <time>2019-06-14T14:51:49Z</time>
      </trkpt>
      <trkpt lat="49.04032" lon="7.44543">
        <ele>310.1</ele>
        <time>2019-06-14T14:51:51Z</time>
      </trkpt>
      <trkpt lat="49.04035" lon="7.44536">
        <ele>309.36</ele>
        <time>2019-06-14T14:51:55Z</time>
      </trkpt>
      <trkpt lat="49.04043" lon="7.44515">
        <ele>306.47</ele>
        <time>2019-06-14T14:52:10Z</time>
      </trkpt>
      <trkpt lat="49.04045" lon="7.44509">
        <ele>305.94</ele>
        <time>2019-06-14T14:52:14Z</time>
      </trkpt>
      <trkpt lat="49.04046" lon="7.44504">
        <ele>305.47</ele>
        <time>2019-06-14T14:52:17Z</time>
      </trkpt>
      <trkpt lat="49.04051" lon="7.44492">
        <ele>304.01</ele>
        <time>2019-06-14T14:52:25Z</time>
      </trkpt>
      <trkpt lat="49.04052" lon="7.44485">
        <ele>303.26</ele>
        <time>2019-06-14T14:52:29Z</time>
      </trkpt>
      <trkpt lat="49.04065" lon="7.4446">
        <ele>300.71</ele>
        <time>2019-06-14T14:52:46Z</time>
      </trkpt>
      <trkpt lat="49.04083" lon="7.44426">
        <ele>297.63</ele>
        <time>2019-06-14T14:53:10Z</time>
      </trkpt>
      <trkpt lat="49.04089" lon="7.44404">
        <ele>296.12</ele>
        <time>2019-06-14T14:53:29Z</time>
      </trkpt>
      <trkpt lat="49.04087" lon="7.44402">
        <ele>295.87</ele>
        <time>2019-06-14T14:53:33Z</time>
      </trkpt>
      <trkpt lat="49.04085" lon="7.44393">
        <ele>295.42</ele>
        <time>2019-06-14T14:54:31Z</time>
      </trkpt>
      <trkpt lat="49.04072" lon="7.44368">
        <ele>295.43</ele>
        <time>2019-06-14T14:54:47Z</time>
      </trkpt>
      <trkpt lat="49.04068" lon="7.44362">
        <ele>295.47</ele>
        <time>2019-06-14T14:54:51Z</time>
      </trkpt>
      <trkpt lat="49.04056" lon="7.44338">
        <ele>295.14</ele>
        <time>2019-06-14T14:55:06Z</time>
      </trkpt>
      <trkpt lat="49.04055" lon="7.44334">
        <ele>294.97</ele>
        <time>2019-06-14T14:55:08Z</time>
      </trkpt>
      <trkpt lat="49.04048" lon="7.44318">
        <ele>293.97</ele>
        <time>2019-06-14T14:55:18Z</time>
      </trkpt>
      <trkpt lat="49.04037" lon="7.44302">
        <ele>292.92</ele>
        <time>2019-06-14T14:55:31Z</time>
      </trkpt>
      <trkpt lat="49.04022" lon="7.44286">
        <ele>291.76</ele>
        <time>2019-06-14T14:55:45Z</time>
      </trkpt>
      <trkpt lat="49.04008" lon="7.44267">
        <ele>291.43</ele>
        <time>2019-06-14T14:56:00Z</time>
      </trkpt>
      <trkpt lat="49.04008" lon="7.44266">
        <ele>291.43</ele>
        <time>2019-06-14T14:56:01Z</time>
      </trkpt>
      <trkpt lat="49.04005" lon="7.44244">
        <ele>292.71</ele>
        <time>2019-06-14T14:56:18Z</time>
      </trkpt>
      <trkpt lat="49.04008" lon="7.44211">
        <ele>292.65</ele>
        <time>2019-06-14T14:56:38Z</time>
      </trkpt>
      <trkpt lat="49.04012" lon="7.4419">
        <ele>292.55</ele>
        <time>2019-06-14T14:57:00Z</time>
      </trkpt>
      <trkpt lat="49.04013" lon="7.44177">
        <ele>292.49</ele>
        <time>2019-06-14T14:57:14Z</time>
      </trkpt>
      <trkpt lat="49.04012" lon="7.44175">
        <ele>292.08</ele>
        <time>2019-06-14T14:57:30Z</time>
      </trkpt>
      <trkpt lat="49.04011" lon="7.44173">
        <ele>292.14</ele>
        <time>2019-06-14T14:57:33Z</time>
      </trkpt>
    </trkseg>
  </trk>
</gpx>